createdAt,value
2017-09-28T00:02:28.105Z,15.00
2017-09-28T00:04:56.357Z,15.10
2017-09-28T00:07:24.610Z,15.10
2017-09-28T00:09:52.881Z,15.10
2017-09-28T00:12:21.137Z,15.10
2017-09-28T00:14:50.154Z,15.00
2017-09-28T00:17:18.542Z,15.00
2017-09-28T00:19:46.801Z,14.90
2017-09-28T00:22:15.053Z,15.00
2017-09-28T00:24:43.342Z,14.90
2017-09-28T00:27:12.354Z,14.90
2017-09-28T00:29:40.605Z,14.90
2017-09-28T00:32:08.885Z,14.90
2017-09-28T00:34:37.895Z,14.80
2017-09-28T00:37:06.151Z,14.80
2017-09-28T00:39:35.812Z,14.80
2017-09-28T00:42:04.058Z,14.80
2017-09-28T00:44:32.314Z,14.80
2017-09-28T00:47:01.510Z,14.90
2017-09-28T00:49:30.526Z,14.90
2017-09-28T00:51:58.790Z,14.90
2017-09-28T00:54:27.057Z,14.90
2017-09-28T00:56:55.309Z,14.90
2017-09-28T00:59:23.565Z,14.80
2017-09-28T01:01:51.961Z,14.70
2017-09-28T01:04:20.225Z,14.70
2017-09-28T01:06:48.483Z,14.70
2017-09-28T01:09:16.761Z,14.70
2017-09-28T01:11:45.033Z,14.60
2017-09-28T01:14:13.275Z,14.50
2017-09-28T01:16:42.314Z,14.60
2017-09-28T01:19:10.669Z,14.60
2017-09-28T01:21:38.918Z,14.60
2017-09-28T01:24:08.299Z,14.50
2017-09-28T01:26:36.545Z,14.50
2017-09-28T01:29:04.790Z,14.50
2017-09-28T01:31:33.061Z,14.50
2017-09-28T01:34:01.311Z,14.50
2017-09-28T01:36:29.564Z,14.50
2017-09-28T01:38:57.840Z,14.50
2017-09-28T01:41:26.090Z,14.40
2017-09-28T01:43:54.338Z,14.40
2017-09-28T01:46:22.785Z,14.30
2017-09-28T01:48:51.036Z,14.30
2017-09-28T01:51:19.284Z,14.20
2017-09-28T01:53:47.557Z,14.20
2017-09-28T01:56:15.801Z,14.20
2017-09-28T01:58:44.050Z,14.10
2017-09-28T02:01:12.333Z,14.10
2017-09-28T02:03:40.578Z,14.20
2017-09-28T02:06:09.921Z,14.20
2017-09-28T02:08:38.682Z,14.10
2017-09-28T02:11:06.941Z,14.10
2017-09-28T02:13:35.186Z,14.10
2017-09-28T02:16:03.474Z,14.10
2017-09-28T02:18:32.498Z,14.20
2017-09-28T02:21:01.154Z,14.10
2017-09-28T02:23:30.192Z,14.20
2017-09-28T02:25:58.446Z,14.20
2017-09-28T02:28:26.698Z,14.20
2017-09-28T02:30:55.101Z,14.20
2017-09-28T02:33:23.355Z,14.30
2017-09-28T02:35:52.369Z,14.30
2017-09-28T02:38:20.645Z,14.20
2017-09-28T02:40:48.902Z,14.20
2017-09-28T02:43:17.918Z,14.30
2017-09-28T02:45:46.193Z,14.30
2017-09-28T02:48:14.450Z,14.30
2017-09-28T02:50:43.461Z,14.30
2017-09-28T02:53:11.785Z,14.30
2017-09-28T02:55:40.055Z,14.30
2017-09-28T02:58:08.297Z,14.30
2017-09-28T03:00:36.573Z,14.30
2017-09-28T03:03:04.826Z,14.30
2017-09-28T03:05:33.841Z,14.30
2017-09-28T03:08:02.119Z,14.30
2017-09-28T03:10:30.365Z,14.30
2017-09-28T03:12:59.841Z,14.30
2017-09-28T03:15:28.302Z,14.20
2017-09-28T03:17:56.566Z,14.20
2017-09-28T03:20:24.817Z,14.10
2017-09-28T03:22:53.414Z,14.10
2017-09-28T03:25:21.706Z,14.10
2017-09-28T03:27:49.941Z,14.20
2017-09-28T03:30:18.222Z,14.20
2017-09-28T03:32:47.237Z,14.20
2017-09-28T03:35:15.485Z,14.20
2017-09-28T03:37:44.673Z,14.10
2017-09-28T03:40:12.930Z,14.10
2017-09-28T03:42:41.173Z,14.20
2017-09-28T03:45:09.450Z,14.10
2017-09-28T03:47:37.770Z,14.20
2017-09-28T03:50:06.021Z,14.20
2017-09-28T03:52:35.062Z,14.20
2017-09-28T03:55:04.081Z,14.20
2017-09-28T03:57:32.341Z,14.20
2017-09-28T04:00:01.714Z,14.30
2017-09-28T04:02:30.013Z,14.30
2017-09-28T04:04:58.265Z,14.20
2017-09-28T04:07:26.542Z,14.20
2017-09-28T04:09:54.791Z,14.10
2017-09-28T04:12:23.041Z,14.10
2017-09-28T04:14:51.322Z,14.10
2017-09-28T04:17:19.574Z,14.10
2017-09-28T04:19:48.585Z,14.10
2017-09-28T04:22:17.297Z,14.10
2017-09-28T04:24:45.946Z,14.10
2017-09-28T04:27:14.216Z,14.10
2017-09-28T04:29:42.491Z,14.10
2017-09-28T04:32:10.751Z,14.10
2017-09-28T04:34:39.009Z,14.00
2017-09-28T04:37:07.575Z,14.00
2017-09-28T04:39:35.827Z,14.00
2017-09-28T04:42:04.081Z,14.00
2017-09-28T04:44:32.826Z,14.00
2017-09-28T04:47:01.078Z,14.00
2017-09-28T04:49:29.326Z,14.00
2017-09-28T04:51:58.370Z,14.00
2017-09-28T04:54:26.621Z,13.90
2017-09-28T04:56:54.868Z,13.90
2017-09-28T04:59:23.905Z,14.00
2017-09-28T05:01:52.168Z,14.00
2017-09-28T05:04:20.420Z,14.00
2017-09-28T05:06:48.894Z,13.90
2017-09-28T05:09:17.146Z,13.90
2017-09-28T05:11:45.393Z,13.90
2017-09-28T05:14:13.669Z,13.80
2017-09-28T05:16:42.070Z,13.80
2017-09-28T05:19:10.318Z,13.90
2017-09-28T05:21:38.586Z,13.90
2017-09-28T05:24:06.836Z,14.00
2017-09-28T05:26:36.032Z,14.00
2017-09-28T05:29:04.477Z,14.00
2017-09-28T05:31:32.710Z,14.00
2017-09-28T05:34:00.966Z,13.90
2017-09-28T05:36:29.245Z,13.90
2017-09-28T05:38:58.404Z,13.90
2017-09-28T05:41:26.650Z,13.90
2017-09-28T05:43:54.955Z,13.90
2017-09-28T05:46:23.990Z,13.80
2017-09-28T05:48:52.222Z,13.80
2017-09-28T05:51:20.711Z,13.90
2017-09-28T05:53:48.962Z,13.90
2017-09-28T05:56:17.253Z,14.00
2017-09-28T05:58:45.548Z,14.00
2017-09-28T06:01:13.846Z,13.90
2017-09-28T06:03:42.163Z,13.90
2017-09-28T06:06:10.469Z,13.90
2017-09-28T06:08:38.772Z,13.90
2017-09-28T06:11:07.371Z,14.00
2017-09-28T06:13:36.206Z,14.10
2017-09-28T06:16:04.454Z,14.20
2017-09-28T06:18:32.850Z,14.20
2017-09-28T06:21:01.169Z,14.30
2017-09-28T06:23:29.445Z,14.30
2017-09-28T06:25:57.687Z,14.40
2017-09-28T06:28:26.504Z,14.50
2017-09-28T06:30:54.758Z,14.50
2017-09-28T06:33:23.159Z,14.60
2017-09-28T06:35:51.622Z,14.60
2017-09-28T06:38:19.913Z,14.60
2017-09-28T06:40:48.192Z,14.60
2017-09-28T06:43:17.234Z,14.70
2017-09-28T06:45:45.526Z,14.80
2017-09-28T06:48:13.803Z,14.80
2017-09-28T06:50:42.087Z,14.90
2017-09-28T06:53:11.103Z,15.00
2017-09-28T06:55:39.590Z,14.90
2017-09-28T06:58:08.050Z,15.00
2017-09-28T07:00:36.436Z,15.00
2017-09-28T07:03:04.697Z,15.10
2017-09-28T07:05:32.960Z,15.10
2017-09-28T07:08:01.226Z,15.10
2017-09-28T07:10:29.482Z,15.10
2017-09-28T07:12:58.000Z,15.10
2017-09-28T07:15:26.374Z,15.10
2017-09-28T07:17:54.629Z,15.20
2017-09-28T07:20:23.766Z,15.20
2017-09-28T07:22:52.009Z,15.20
2017-09-28T07:25:21.034Z,15.20
2017-09-28T07:27:49.312Z,15.20
2017-09-28T07:30:18.075Z,15.20
2017-09-28T07:32:46.321Z,15.10
2017-09-28T07:35:14.597Z,15.20
2017-09-28T07:37:42.865Z,15.20
2017-09-28T07:40:11.116Z,15.10
2017-09-28T07:42:39.573Z,15.20
2017-09-28T07:45:07.826Z,15.20
2017-09-28T07:47:36.855Z,15.20
2017-09-28T07:50:05.129Z,15.20
2017-09-28T07:52:33.410Z,15.30
2017-09-28T07:55:02.402Z,15.50
2017-09-28T07:57:30.674Z,15.50
2017-09-28T07:59:58.917Z,15.70
2017-09-28T08:02:27.941Z,15.80
2017-09-28T08:04:56.463Z,15.80
2017-09-28T08:07:24.726Z,15.90
2017-09-28T08:09:52.994Z,15.90
2017-09-28T08:12:21.274Z,16.00
2017-09-28T08:14:49.534Z,16.10
2017-09-28T08:17:17.774Z,16.20
2017-09-28T08:19:46.121Z,16.30
2017-09-28T08:22:14.375Z,16.30
2017-09-28T08:24:42.656Z,16.30
2017-09-28T08:27:11.079Z,16.30
2017-09-28T08:29:39.639Z,16.40
2017-09-28T08:32:08.233Z,16.30
2017-09-28T08:34:36.533Z,16.30
2017-09-28T08:37:05.596Z,16.40
2017-09-28T08:39:33.841Z,16.40
2017-09-28T08:42:02.873Z,16.40
2017-09-28T08:44:32.046Z,16.40
2017-09-28T08:47:01.318Z,16.30
2017-09-28T08:49:29.658Z,16.30
2017-09-28T08:51:57.921Z,16.20
2017-09-28T08:54:26.197Z,16.10
2017-09-28T08:56:54.490Z,16.10
2017-09-28T08:59:22.958Z,16.10
2017-09-28T09:01:51.198Z,16.20
2017-09-28T09:04:19.477Z,16.20
2017-09-28T09:06:47.730Z,16.20
2017-09-28T09:09:16.164Z,16.40
2017-09-28T09:11:44.779Z,16.50
2017-09-28T09:14:13.162Z,16.50
2017-09-28T09:16:41.430Z,16.60
2017-09-28T09:19:09.697Z,16.70
2017-09-28T09:21:37.965Z,16.80
2017-09-28T09:24:06.237Z,16.80
2017-09-28T09:26:34.502Z,16.90
2017-09-28T09:29:02.758Z,17.00
2017-09-28T09:31:31.002Z,17.10
2017-09-28T09:34:00.224Z,17.40
2017-09-28T09:36:28.502Z,17.60
2017-09-28T09:38:56.754Z,17.80
2017-09-28T09:41:25.094Z,18.00
2017-09-28T09:43:53.358Z,18.10
2017-09-28T09:46:21.593Z,18.20
2017-09-28T09:48:49.877Z,18.40
2017-09-28T09:51:18.121Z,18.50
2017-09-28T09:53:46.614Z,18.50
2017-09-28T09:56:15.425Z,18.50
2017-09-28T09:58:43.677Z,18.60
2017-09-28T10:01:12.070Z,18.60
2017-09-28T10:03:41.115Z,19.50
2017-09-28T10:06:09.394Z,19.40
2017-09-28T10:08:42.514Z,19.90
2017-09-28T10:11:17.939Z,20.10
2017-09-28T10:13:53.070Z,20.10
2017-09-28T10:16:21.354Z,20.50
2017-09-28T10:18:49.620Z,20.90
2017-09-28T10:21:17.921Z,21.00
2017-09-28T10:23:46.202Z,21.30
2017-09-28T10:26:14.665Z,21.40
2017-09-28T10:28:42.913Z,21.40
2017-09-28T10:31:11.171Z,21.20
2017-09-28T10:33:39.421Z,21.20
2017-09-28T10:36:08.106Z,21.40
2017-09-28T10:38:36.383Z,21.90
2017-09-28T10:41:05.407Z,22.40
2017-09-28T10:43:33.938Z,22.40
2017-09-28T10:46:02.194Z,22.20
2017-09-28T10:48:31.097Z,21.80
2017-09-28T10:50:59.422Z,21.60
2017-09-28T10:53:29.044Z,21.50
2017-09-28T10:55:57.293Z,21.80
2017-09-28T10:58:26.633Z,22.50
2017-09-28T11:00:57.474Z,22.50
2017-09-28T11:03:25.799Z,23.00
2017-09-28T11:05:54.118Z,23.50
2017-09-28T11:08:22.374Z,23.60
2017-09-28T11:10:50.618Z,23.60
2017-09-28T11:13:18.890Z,23.70
2017-09-28T11:15:47.138Z,24.00
2017-09-28T11:18:15.414Z,24.20
2017-09-28T11:20:44.583Z,24.30
2017-09-28T11:23:12.830Z,24.60
2017-09-28T11:25:41.103Z,25.30
2017-09-28T11:28:09.408Z,26.50
2017-09-28T11:30:37.635Z,27.20
2017-09-28T11:33:05.925Z,27.20
2017-09-28T11:35:34.440Z,26.90
2017-09-28T11:38:03.701Z,26.70
2017-09-28T11:40:32.026Z,26.80
2017-09-28T11:43:01.707Z,26.70
2017-09-28T11:45:30.005Z,26.30
2017-09-28T11:48:00.558Z,25.90
2017-09-28T11:50:28.913Z,25.50
2017-09-28T11:52:57.175Z,25.30
2017-09-28T11:55:25.676Z,25.20
2017-09-28T11:57:54.827Z,24.60
2017-09-28T12:00:23.151Z,24.60
2017-09-28T12:02:51.479Z,24.30
2017-09-28T12:05:19.918Z,24.20
2017-09-28T12:07:48.368Z,24.00
2017-09-28T12:10:16.963Z,23.80
2017-09-28T12:12:45.284Z,23.60
2017-09-28T12:15:13.599Z,23.40
2017-09-28T12:17:41.860Z,23.30
2017-09-28T12:20:12.223Z,23.20
2017-09-28T12:22:41.309Z,22.80
2017-09-28T12:25:10.677Z,22.90
2017-09-28T12:27:39.102Z,23.00
2017-09-28T12:30:07.338Z,23.20
2017-09-28T12:32:35.586Z,23.70
2017-09-28T12:35:04.642Z,24.60
2017-09-28T12:37:33.704Z,25.00
2017-09-28T12:40:02.330Z,25.00
2017-09-28T12:42:31.381Z,26.70
2017-09-28T12:44:59.898Z,26.70
2017-09-28T12:47:28.153Z,27.50
2017-09-28T12:49:56.501Z,27.90
2017-09-28T12:52:24.742Z,28.20
2017-09-28T12:54:52.989Z,29.00
2017-09-28T12:57:21.271Z,30.40
2017-09-28T12:59:49.526Z,31.40
2017-09-28T13:02:17.777Z,32.20
2017-09-28T13:04:46.090Z,32.60
2017-09-28T13:07:16.313Z,33.10
2017-09-28T13:09:44.558Z,33.20
2017-09-28T13:12:12.893Z,33.50
2017-09-28T13:14:41.909Z,32.30
2017-09-28T13:17:10.160Z,32.30
2017-09-28T13:19:39.204Z,31.20
2017-09-28T13:22:07.450Z,31.20
2017-09-28T13:24:35.719Z,31.00
2017-09-28T13:27:04.005Z,31.00
2017-09-28T13:29:32.354Z,31.40
2017-09-28T13:32:00.603Z,32.20
2017-09-28T13:34:29.114Z,32.90
2017-09-28T13:36:58.133Z,33.40
2017-09-28T13:39:26.521Z,33.40
2017-09-28T13:41:55.790Z,33.50
2017-09-28T13:44:24.809Z,33.00
2017-09-28T13:46:53.134Z,32.90
2017-09-28T13:49:22.479Z,31.70
2017-09-28T13:51:51.513Z,32.30
2017-09-28T13:54:19.762Z,32.30
2017-09-28T13:56:49.502Z,33.30
2017-09-28T13:59:18.774Z,33.90
2017-09-28T14:01:47.024Z,33.90
2017-09-28T14:04:15.501Z,33.70
2017-09-28T14:06:44.519Z,33.00
2017-09-28T14:09:12.779Z,33.00
2017-09-28T14:11:41.055Z,32.80
2017-09-28T14:14:10.218Z,32.10
2017-09-28T14:16:42.736Z,32.10
2017-09-28T14:19:10.923Z,32.80
2017-09-28T14:21:39.361Z,33.90
2017-09-28T14:24:07.757Z,34.80
2017-09-28T14:26:36.785Z,34.90
2017-09-28T14:29:05.111Z,34.90
2017-09-28T14:31:34.450Z,35.00
2017-09-28T14:34:03.463Z,35.10
2017-09-28T14:36:32.701Z,35.10
2017-09-28T14:39:01.185Z,35.20
2017-09-28T14:41:29.446Z,34.90
2017-09-28T14:43:58.778Z,34.50
2017-09-28T14:46:27.174Z,34.40
2017-09-28T14:48:56.190Z,34.80
2017-09-28T14:51:24.898Z,34.70
2017-09-28T14:53:53.274Z,34.90
2017-09-28T14:56:22.518Z,34.90
2017-09-28T14:58:50.770Z,34.50
2017-09-28T15:01:19.205Z,34.50
2017-09-28T15:03:47.642Z,33.90
2017-09-28T15:06:16.014Z,33.70
2017-09-28T15:08:44.431Z,33.40
2017-09-28T15:11:13.450Z,33.50
2017-09-28T15:13:41.726Z,33.40
2017-09-28T15:16:10.011Z,33.60
2017-09-28T15:18:38.274Z,33.70
2017-09-28T15:21:06.798Z,33.90
2017-09-28T15:23:35.165Z,34.30
2017-09-28T15:26:03.398Z,33.70
2017-09-28T15:28:31.655Z,32.90
2017-09-28T15:31:00.227Z,32.00
2017-09-28T15:33:28.484Z,31.30
2017-09-28T15:35:56.729Z,30.80
2017-09-28T15:38:25.009Z,30.60
2017-09-28T15:40:53.330Z,30.30
2017-09-28T15:43:21.743Z,30.00
2017-09-28T15:45:50.474Z,29.40
2017-09-28T15:48:20.995Z,29.00
2017-09-28T15:50:49.357Z,28.50
2017-09-28T15:53:17.702Z,28.10
2017-09-28T15:55:46.741Z,27.40
2017-09-28T15:58:15.049Z,27.40
2017-09-28T16:00:43.457Z,27.20
2017-09-28T16:03:12.736Z,26.80
2017-09-28T16:05:41.195Z,26.80
2017-09-28T16:08:09.580Z,26.70
2017-09-28T16:10:37.902Z,26.50
2017-09-28T16:13:08.398Z,26.30
2017-09-28T16:15:36.804Z,26.20
2017-09-28T16:18:07.001Z,25.90
2017-09-28T16:20:36.302Z,25.90
2017-09-28T16:23:04.578Z,25.80
2017-09-28T16:25:32.829Z,25.60
2017-09-28T16:28:01.079Z,25.50
2017-09-28T16:30:29.625Z,25.40
2017-09-28T16:32:57.880Z,25.30
2017-09-28T16:35:34.292Z,25.10
2017-09-28T16:38:14.623Z,24.90
2017-09-28T16:40:51.204Z,24.70
2017-09-28T16:43:31.260Z,24.60
2017-09-28T16:46:03.509Z,24.50
2017-09-28T16:48:32.008Z,24.30
2017-09-28T16:51:00.243Z,24.20
2017-09-28T16:53:28.571Z,24.20
2017-09-28T16:55:57.598Z,24.00
2017-09-28T16:58:26.131Z,24.00
2017-09-28T17:00:54.398Z,24.00
2017-09-28T17:03:22.678Z,23.90
2017-09-28T17:05:51.055Z,23.60
2017-09-28T17:08:19.603Z,23.50
2017-09-28T17:10:47.877Z,23.30
2017-09-28T17:13:17.145Z,23.20
2017-09-28T17:15:49.761Z,23.10
2017-09-28T17:18:18.174Z,22.90
2017-09-28T17:20:48.397Z,22.80
2017-09-28T17:23:18.762Z,22.70
2017-09-28T17:25:48.251Z,22.60
2017-09-28T17:28:19.499Z,22.40
2017-09-28T17:30:49.906Z,22.30
2017-09-28T17:33:18.291Z,22.30
2017-09-28T17:35:46.725Z,22.20
2017-09-28T17:38:15.065Z,22.20
2017-09-28T17:40:45.282Z,21.90
2017-09-28T17:43:14.353Z,21.90
2017-09-28T17:45:43.746Z,21.90
2017-09-28T17:48:12.668Z,21.90
2017-09-28T17:50:41.142Z,21.80
2017-09-28T17:53:09.645Z,21.70
2017-09-28T17:55:39.843Z,21.60
2017-09-28T17:58:08.243Z,21.50
2017-09-28T18:00:37.283Z,21.40
2017-09-28T18:03:05.606Z,21.40
2017-09-28T18:05:35.854Z,21.30
2017-09-28T18:08:04.222Z,21.30
2017-09-28T18:10:33.245Z,21.20
2017-09-28T18:13:01.740Z,21.10
2017-09-28T18:15:30.133Z,21.10
2017-09-28T18:18:00.270Z,21.00
2017-09-28T18:20:28.573Z,21.00
2017-09-28T18:22:57.091Z,21.00
2017-09-28T18:25:25.603Z,20.90
2017-09-28T18:27:54.940Z,20.80
2017-09-28T18:30:23.297Z,20.70
2017-09-28T18:32:51.857Z,20.60
2017-09-28T18:35:21.456Z,20.60
2017-09-28T18:37:50.897Z,20.60
2017-09-28T18:40:20.177Z,20.50
2017-09-28T18:42:51.971Z,20.50
2017-09-28T18:45:22.208Z,20.40
2017-09-28T18:47:52.691Z,20.30
2017-09-28T18:50:21.415Z,20.30
2017-09-28T18:52:50.447Z,20.30
2017-09-28T18:55:19.670Z,20.30
2017-09-28T18:57:48.338Z,20.30
2017-09-28T19:00:16.730Z,20.30
2017-09-28T19:02:45.113Z,20.20
2017-09-28T19:05:13.570Z,20.20
2017-09-28T19:07:41.873Z,20.10
2017-09-28T19:10:10.269Z,20.00
2017-09-28T19:12:41.796Z,20.00
2017-09-28T19:15:10.087Z,19.90
2017-09-28T19:17:38.453Z,19.90
2017-09-28T19:20:07.953Z,19.90
2017-09-28T19:22:36.214Z,19.90
2017-09-28T19:25:06.669Z,19.80
2017-09-28T19:27:35.069Z,19.70
2017-09-28T19:30:04.097Z,19.60
2017-09-28T19:32:33.342Z,19.60
2017-09-28T19:35:01.758Z,19.60
2017-09-28T19:37:30.107Z,19.60
2017-09-28T19:39:59.510Z,19.60
2017-09-28T19:42:28.282Z,19.50
2017-09-28T19:44:56.661Z,19.50
2017-09-28T19:47:24.901Z,19.40
2017-09-28T19:49:53.243Z,19.40
2017-09-28T19:52:22.829Z,19.40
2017-09-28T19:54:52.134Z,19.40
2017-09-28T19:57:24.543Z,19.40
2017-09-28T19:59:52.926Z,19.40
2017-09-28T20:02:22.303Z,19.40
2017-09-28T20:04:51.578Z,19.30
2017-09-28T20:07:19.870Z,19.30
2017-09-28T20:09:48.281Z,19.20
2017-09-28T20:12:17.353Z,19.10
2017-09-28T20:14:46.542Z,19.10
2017-09-28T20:17:14.937Z,19.10
2017-09-28T20:19:43.354Z,19.00
2017-09-28T20:22:11.804Z,18.90
2017-09-28T20:24:40.070Z,18.90
2017-09-28T20:27:08.913Z,18.80
2017-09-28T20:29:37.225Z,18.80
2017-09-28T20:32:05.507Z,18.70
2017-09-28T20:34:33.779Z,18.60
2017-09-28T20:37:02.018Z,18.60
2017-09-28T20:39:31.272Z,18.50
2017-09-28T20:42:00.322Z,18.40
2017-09-28T20:44:28.579Z,18.40
2017-09-28T20:46:57.198Z,18.40
2017-09-28T20:49:26.412Z,18.40
2017-09-28T20:51:56.840Z,18.40
2017-09-28T20:54:25.836Z,18.40
2017-09-28T20:56:54.239Z,18.40
2017-09-28T20:59:23.510Z,18.40
2017-09-28T21:01:51.903Z,18.30
2017-09-28T21:04:20.946Z,18.30
2017-09-28T21:06:49.284Z,18.30
2017-09-28T21:09:20.497Z,18.30
2017-09-28T21:11:48.874Z,18.30
2017-09-28T21:14:17.132Z,18.30
2017-09-28T21:16:45.539Z,18.20
2017-09-28T21:19:14.890Z,18.20
2017-09-28T21:21:43.138Z,18.20
2017-09-28T21:24:12.154Z,18.10
2017-09-28T21:26:40.425Z,18.10
2017-09-28T21:29:08.678Z,18.10
2017-09-28T21:31:37.753Z,18.20
2017-09-28T21:34:06.417Z,18.20
2017-09-28T21:36:34.666Z,18.20
2017-09-28T21:39:02.923Z,18.10
2017-09-28T21:41:31.197Z,18.10
2017-09-28T21:44:00.214Z,18.00
2017-09-28T21:46:28.469Z,18.10
2017-09-28T21:48:56.812Z,18.00
2017-09-28T21:51:25.046Z,18.00
2017-09-28T21:53:53.314Z,17.90
2017-09-28T21:56:21.861Z,17.90
2017-09-28T21:58:50.106Z,17.80
2017-09-28T22:01:18.362Z,17.80
2017-09-28T22:03:46.638Z,17.70
2017-09-28T22:06:14.889Z,17.80
2017-09-28T22:08:43.141Z,17.80
2017-09-28T22:11:11.417Z,17.80
2017-09-28T22:13:39.670Z,17.80
2017-09-28T22:16:07.917Z,17.80
2017-09-28T22:18:36.257Z,17.80
2017-09-28T22:21:04.511Z,17.70
2017-09-28T22:23:32.755Z,17.70
2017-09-28T22:26:01.031Z,17.70
2017-09-28T22:28:29.277Z,17.60
2017-09-28T22:30:58.289Z,17.60
2017-09-28T22:33:26.563Z,17.60
2017-09-28T22:35:54.821Z,17.60
2017-09-28T22:38:23.846Z,17.60
2017-09-28T22:40:52.355Z,17.60
2017-09-28T22:43:20.618Z,17.50
2017-09-28T22:45:48.882Z,17.50
2017-09-28T22:48:17.154Z,17.50
2017-09-28T22:50:45.406Z,17.50
2017-09-28T22:53:14.426Z,17.40
2017-09-28T22:55:42.698Z,17.40
2017-09-28T22:58:11.569Z,17.40
2017-09-28T23:00:40.811Z,17.30
2017-09-28T23:03:09.598Z,17.30
2017-09-28T23:05:37.909Z,17.30
2017-09-28T23:08:06.186Z,17.30
2017-09-28T23:10:34.461Z,17.30
2017-09-28T23:13:02.718Z,17.20
2017-09-28T23:15:30.962Z,17.20
2017-09-28T23:17:59.237Z,17.20
2017-09-28T23:20:27.482Z,17.20
2017-09-28T23:22:55.734Z,17.20
2017-09-28T23:25:24.402Z,17.30
2017-09-28T23:27:52.658Z,17.30
2017-09-28T23:30:20.917Z,17.30
2017-09-28T23:32:49.182Z,17.30
2017-09-28T23:35:17.433Z,17.20
2017-09-28T23:37:45.684Z,17.30
2017-09-28T23:40:13.954Z,17.20
2017-09-28T23:42:42.210Z,17.20
2017-09-28T23:45:10.469Z,17.20
2017-09-28T23:47:39.854Z,17.20
2017-09-28T23:50:08.109Z,17.10
2017-09-28T23:52:36.361Z,17.10
2017-09-28T23:55:04.682Z,17.10
2017-09-28T23:57:32.934Z,17.10
